createdAt,value
2018-09-29T00:00:25.453Z,0
2018-09-29T00:01:05.823Z,0
2018-09-29T00:01:46.236Z,0
2018-09-29T00:02:26.610Z,0
2018-09-29T00:03:07.057Z,0
2018-09-29T00:03:47.433Z,0
2018-09-29T00:04:27.916Z,0
2018-09-29T00:05:08.352Z,0
2018-09-29T00:05:48.649Z,0
2018-09-29T00:06:29.188Z,0
2018-09-29T00:07:09.595Z,0
2018-09-29T00:07:49.977Z,0
2018-09-29T00:08:30.814Z,0
2018-09-29T00:09:11.164Z,0
2018-09-29T00:09:51.790Z,0
2018-09-29T00:10:32.269Z,0
2018-09-29T00:11:12.826Z,0
2018-09-29T00:11:53.056Z,0
2018-09-29T00:12:33.530Z,0
2018-09-29T00:13:13.933Z,0
2018-09-29T00:13:54.511Z,0
2018-09-29T00:14:34.921Z,0
2018-09-29T00:15:15.195Z,0
2018-09-29T00:15:55.619Z,0
2018-09-29T00:16:36.184Z,0
2018-09-29T00:17:16.426Z,0
2018-09-29T00:17:56.837Z,0
2018-09-29T00:18:37.802Z,0
2018-09-29T00:19:18.132Z,0
2018-09-29T00:19:58.568Z,0
2018-09-29T00:20:39.188Z,0
2018-09-29T00:21:19.888Z,0
2018-09-29T00:22:00.088Z,0
2018-09-29T00:22:40.538Z,0
2018-09-29T00:23:21.018Z,0
2018-09-29T00:24:01.444Z,0
2018-09-29T00:24:41.886Z,0
2018-09-29T00:25:22.838Z,0
2018-09-29T00:26:03.541Z,0
2018-09-29T00:26:43.856Z,0
2018-09-29T00:27:24.780Z,0
2018-09-29T00:28:05.484Z,0
2018-09-29T00:28:45.923Z,0
2018-09-29T00:29:26.490Z,0
2018-09-29T00:30:06.811Z,0
2018-09-29T00:30:47.458Z,0
2018-09-29T00:31:27.915Z,0
2018-09-29T00:32:08.669Z,0
2018-09-29T00:32:48.932Z,0
2018-09-29T00:33:29.329Z,0
2018-09-29T00:34:09.700Z,0
2018-09-29T00:34:50.122Z,0
2018-09-29T00:35:30.541Z,0
2018-09-29T00:36:10.925Z,0
2018-09-29T00:36:51.326Z,0
2018-09-29T00:37:31.841Z,0
2018-09-29T00:38:12.634Z,0
2018-09-29T00:38:52.708Z,0
2018-09-29T00:39:33.110Z,0
2018-09-29T00:40:13.501Z,0
2018-09-29T00:40:53.844Z,0
2018-09-29T00:41:34.337Z,0
2018-09-29T00:42:14.666Z,0
2018-09-29T00:42:55.062Z,0
2018-09-29T00:43:35.519Z,0
2018-09-29T00:44:15.934Z,0
2018-09-29T00:44:56.317Z,0
2018-09-29T00:45:36.801Z,0
2018-09-29T00:46:17.075Z,0
2018-09-29T00:46:57.585Z,0
2018-09-29T00:47:37.928Z,0
2018-09-29T00:48:18.299Z,0
2018-09-29T00:48:58.854Z,0
2018-09-29T00:51:34.981Z,0
2018-09-29T00:52:15.398Z,0
2018-09-29T00:52:55.773Z,0
2018-09-29T00:53:36.178Z,0
2018-09-29T00:54:16.615Z,0
2018-09-29T00:54:56.982Z,0
2018-09-29T00:55:37.442Z,0
2018-09-29T00:56:17.785Z,0
2018-09-29T00:56:58.188Z,0
2018-09-29T00:57:38.657Z,0
2018-09-29T00:58:19.169Z,0
2018-09-29T00:58:59.442Z,0
2018-09-29T00:59:39.821Z,0
2018-09-29T01:00:20.295Z,0
2018-09-29T01:01:00.733Z,0
2018-09-29T01:01:41.176Z,0
2018-09-29T01:02:21.557Z,0
2018-09-29T01:03:01.940Z,0
2018-09-29T01:03:42.394Z,0
2018-09-29T01:04:22.769Z,0
2018-09-29T01:05:03.057Z,0
2018-09-29T01:05:43.539Z,0
2018-09-29T01:06:23.865Z,0
2018-09-29T01:07:04.349Z,0
2018-09-29T01:07:44.672Z,0
2018-09-29T01:08:25.065Z,0
2018-09-29T01:09:05.550Z,0
2018-09-29T01:09:46.076Z,0
2018-09-29T01:10:26.374Z,0
2018-09-29T01:11:06.744Z,0
2018-09-29T01:11:47.165Z,0
2018-09-29T01:12:27.528Z,0
2018-09-29T01:13:08.043Z,0
2018-09-29T01:13:48.401Z,0
2018-09-29T01:14:29.000Z,0
2018-09-29T01:15:09.365Z,0
2018-09-29T01:15:49.841Z,0
2018-09-29T01:16:30.270Z,0
2018-09-29T01:17:10.594Z,0
2018-09-29T01:17:51.024Z,0
2018-09-29T01:18:31.423Z,0
2018-09-29T01:19:11.924Z,0
2018-09-29T01:19:52.226Z,0
2018-09-29T01:20:32.741Z,0
2018-09-29T01:21:13.255Z,0
2018-09-29T01:21:53.574Z,0
2018-09-29T01:22:33.969Z,0
2018-09-29T01:23:14.360Z,0
2018-09-29T01:23:54.789Z,0
2018-09-29T01:24:35.282Z,0
2018-09-29T01:25:15.566Z,0
2018-09-29T01:25:55.959Z,0
2018-09-29T01:26:36.414Z,0
2018-09-29T01:27:16.869Z,0
2018-09-29T01:27:57.253Z,0
2018-09-29T01:28:37.612Z,0
2018-09-29T01:29:18.040Z,0
2018-09-29T01:29:58.460Z,0
2018-09-29T01:30:38.843Z,0
2018-09-29T01:31:19.257Z,0
2018-09-29T01:31:59.573Z,0
2018-09-29T01:32:40.025Z,0
2018-09-29T01:33:20.526Z,0
2018-09-29T01:34:00.806Z,0
2018-09-29T01:34:41.184Z,0
2018-09-29T01:35:21.789Z,0
2018-09-29T01:36:02.086Z,0
2018-09-29T01:36:42.463Z,0
2018-09-29T01:37:22.873Z,0
2018-09-29T01:38:03.238Z,0
2018-09-29T01:38:43.731Z,0
2018-09-29T01:39:24.112Z,0
2018-09-29T01:40:04.512Z,0
2018-09-29T01:40:44.903Z,0
2018-09-29T01:41:25.294Z,0
2018-09-29T01:43:54.141Z,0
2018-09-29T01:44:34.505Z,0
2018-09-29T01:45:14.929Z,0
2018-09-29T01:45:55.329Z,0
2018-09-29T01:46:35.748Z,0
2018-09-29T01:47:16.163Z,0
2018-09-29T01:47:56.560Z,0
2018-09-29T01:48:36.977Z,0
2018-09-29T01:49:17.379Z,0
2018-09-29T01:49:57.761Z,0
2018-09-29T01:51:55.893Z,0
2018-09-29T01:52:35.887Z,0
2018-09-29T01:53:16.298Z,0
2018-09-29T01:53:56.689Z,0
2018-09-29T01:55:54.161Z,0
2018-09-29T01:56:34.517Z,0
2018-09-29T01:57:14.912Z,0
2018-09-29T01:57:55.301Z,0
2018-09-29T01:58:35.703Z,0
2018-09-29T01:59:16.142Z,0
2018-09-29T01:59:56.572Z,0
2018-09-29T02:00:36.972Z,0
2018-09-29T02:01:17.374Z,0
2018-09-29T02:01:57.815Z,0
2018-09-29T02:02:38.232Z,0
2018-09-29T02:03:18.610Z,0
2018-09-29T02:05:46.334Z,0
2018-09-29T02:06:26.669Z,0
2018-09-29T02:07:07.090Z,0
2018-09-29T02:07:47.519Z,0
2018-09-29T02:08:27.932Z,0
2018-09-29T02:09:08.347Z,0
2018-09-29T02:09:48.843Z,0
2018-09-29T02:10:29.182Z,0
2018-09-29T02:11:09.574Z,0
2018-09-29T02:11:50.005Z,0
2018-09-29T02:14:02.796Z,0
2018-09-29T02:14:42.936Z,0
2018-09-29T02:15:23.341Z,0
2018-09-29T02:16:03.731Z,0
2018-09-29T02:16:44.187Z,0
2018-09-29T02:17:24.559Z,0
2018-09-29T02:19:37.063Z,0
2018-09-29T02:20:17.436Z,0
2018-09-29T02:20:57.880Z,0
2018-09-29T02:21:38.280Z,0
2018-09-29T02:22:18.692Z,0
2018-09-29T02:22:59.079Z,0
2018-09-29T02:23:39.486Z,0
2018-09-29T02:24:19.914Z,0
2018-09-29T02:25:00.340Z,0
2018-09-29T02:25:40.779Z,0
2018-09-29T02:26:21.158Z,0
2018-09-29T02:27:01.539Z,0
2018-09-29T02:27:41.993Z,0
2018-09-29T02:28:22.356Z,0
2018-09-29T02:29:02.859Z,0
2018-09-29T02:29:43.207Z,0
2018-09-29T02:30:23.610Z,0
2018-09-29T02:31:04.022Z,0
2018-09-29T02:31:44.418Z,0
2018-09-29T02:32:24.849Z,0
2018-09-29T02:33:05.235Z,0
2018-09-29T02:33:45.676Z,0
2018-09-29T02:34:26.045Z,0
2018-09-29T02:35:06.500Z,0
2018-09-29T02:35:46.858Z,0
2018-09-29T02:36:27.265Z,0
2018-09-29T02:37:07.658Z,0
2018-09-29T02:37:48.060Z,0
2018-09-29T02:38:28.491Z,0
2018-09-29T02:39:08.912Z,0
2018-09-29T02:39:49.299Z,0
2018-09-29T02:40:29.705Z,0
2018-09-29T02:41:10.113Z,0
2018-09-29T02:41:50.505Z,0
2018-09-29T02:42:30.952Z,0
2018-09-29T02:44:59.190Z,0
2018-09-29T02:45:39.232Z,0
2018-09-29T02:46:19.646Z,0
2018-09-29T02:47:00.082Z,0
2018-09-29T02:47:40.468Z,0
2018-09-29T02:48:20.865Z,0
2018-09-29T02:49:01.300Z,0
2018-09-29T02:49:41.715Z,0
2018-09-29T02:50:22.175Z,0
2018-09-29T02:51:02.596Z,0
2018-09-29T02:53:36.592Z,0
2018-09-29T02:54:16.817Z,0
2018-09-29T02:54:57.210Z,0
2018-09-29T02:55:37.644Z,0
2018-09-29T02:56:18.061Z,0
2018-09-29T02:56:58.481Z,0
2018-09-29T02:57:38.824Z,0
2018-09-29T02:58:19.249Z,0
2018-09-29T02:58:59.645Z,0
2018-09-29T02:59:40.060Z,0
2018-09-29T03:00:20.461Z,0
2018-09-29T03:01:00.834Z,0
2018-09-29T03:03:01.182Z,0
2018-09-29T03:03:41.009Z,0
2018-09-29T03:04:21.384Z,0
2018-09-29T03:05:01.834Z,0
2018-09-29T03:05:42.235Z,0
2018-09-29T03:07:56.070Z,0
2018-09-29T03:08:36.304Z,0
2018-09-29T03:09:16.679Z,0
2018-09-29T03:09:57.095Z,0
2018-09-29T03:10:37.457Z,0
2018-09-29T03:11:17.904Z,0
2018-09-29T03:11:58.308Z,0
2018-09-29T03:12:38.746Z,0
2018-09-29T03:13:19.119Z,0
2018-09-29T03:13:59.536Z,0
2018-09-29T03:14:39.947Z,0
2018-09-29T03:15:20.381Z,0
2018-09-29T03:17:34.346Z,0
2018-09-29T03:18:13.921Z,0
2018-09-29T03:18:54.352Z,0
2018-09-29T03:19:34.771Z,0
2018-09-29T03:20:15.184Z,0
2018-09-29T03:20:55.576Z,0
2018-09-29T03:21:35.996Z,0
2018-09-29T03:22:16.383Z,0
2018-09-29T03:22:56.846Z,0
2018-09-29T03:23:37.163Z,0
2018-09-29T03:24:17.567Z,0
2018-09-29T03:26:15.210Z,0
2018-09-29T03:26:55.541Z,0
2018-09-29T03:27:35.987Z,0
2018-09-29T03:28:16.396Z,0
2018-09-29T03:28:56.778Z,0
2018-09-29T03:29:37.191Z,0
2018-09-29T03:30:17.636Z,0
2018-09-29T03:30:58.051Z,0
2018-09-29T03:31:38.571Z,0
2018-09-29T03:32:18.889Z,0
2018-09-29T03:32:59.308Z,0
2018-09-29T03:33:39.682Z,0
2018-09-29T03:35:52.534Z,0
2018-09-29T03:36:32.758Z,0
2018-09-29T03:37:13.172Z,0
2018-09-29T03:37:53.575Z,0
2018-09-29T03:40:21.839Z,0
2018-09-29T03:41:02.493Z,0
2018-09-29T03:41:42.872Z,0
2018-09-29T03:42:23.243Z,0
2018-09-29T03:43:03.673Z,0
2018-09-29T03:43:44.130Z,0
2018-09-29T03:44:24.595Z,0
2018-09-29T03:45:04.966Z,0
2018-09-29T03:45:45.368Z,0
2018-09-29T03:46:25.738Z,0
2018-09-29T03:47:06.163Z,0
2018-09-29T03:47:46.533Z,0
2018-09-29T03:48:26.983Z,0
2018-09-29T03:49:07.347Z,0
2018-09-29T03:49:47.859Z,0
2018-09-29T03:50:28.286Z,0
2018-09-29T03:51:08.696Z,0
2018-09-29T03:51:49.119Z,0
2018-09-29T03:52:29.539Z,0
2018-09-29T03:53:09.885Z,0
2018-09-29T03:53:50.372Z,0
2018-09-29T03:54:30.803Z,0
2018-09-29T03:55:11.289Z,0
2018-09-29T03:55:51.650Z,0
2018-09-29T03:56:32.073Z,0
2018-09-29T03:57:12.439Z,0
2018-09-29T03:57:52.853Z,0
2018-09-29T03:58:33.318Z,0
2018-09-29T03:59:13.724Z,0
2018-09-29T03:59:54.088Z,0
2018-09-29T04:00:34.506Z,0
2018-09-29T04:01:14.918Z,0
2018-09-29T04:01:55.326Z,0
2018-09-29T04:02:35.766Z,0
2018-09-29T04:03:16.145Z,0
2018-09-29T04:03:56.580Z,0
2018-09-29T04:04:37.041Z,0
2018-09-29T04:05:17.400Z,0
2018-09-29T04:05:57.819Z,0
2018-09-29T04:07:56.772Z,0
2018-09-29T04:08:37.078Z,0
2018-09-29T04:09:17.440Z,0
2018-09-29T04:09:59.563Z,0
2018-09-29T04:10:40.002Z,0
2018-09-29T04:11:20.395Z,0
2018-09-29T04:12:00.865Z,0
2018-09-29T04:12:41.221Z,0
2018-09-29T04:13:21.621Z,0
2018-09-29T04:14:02.349Z,0
2018-09-29T04:14:42.486Z,0
2018-09-29T04:15:22.946Z,0
2018-09-29T04:16:03.261Z,0
2018-09-29T04:16:43.737Z,0
2018-09-29T04:17:24.065Z,0
2018-09-29T04:18:04.500Z,0
2018-09-29T04:18:44.911Z,0
2018-09-29T04:19:25.290Z,0
2018-09-29T04:20:05.719Z,0
2018-09-29T04:20:46.077Z,0
2018-09-29T04:21:26.479Z,0
2018-09-29T04:22:06.894Z,0
2018-09-29T04:24:38.879Z,0
2018-09-29T04:25:19.781Z,0
2018-09-29T04:26:00.230Z,0
2018-09-29T04:26:40.609Z,0
2018-09-29T05:08:27.344Z,12
2018-09-29T05:09:53.169Z,12
2018-09-29T05:10:33.548Z,12
2018-09-29T05:11:13.962Z,16
2018-09-29T05:11:54.425Z,16
2018-09-29T05:12:34.809Z,16
2018-09-29T05:13:15.209Z,24
2018-09-29T05:13:55.752Z,24
2018-09-29T05:14:36.029Z,32
2018-09-29T05:15:16.442Z,32
2018-09-29T05:15:56.814Z,36
2018-09-29T05:16:37.208Z,40
2018-09-29T05:17:17.609Z,44
2018-09-29T05:17:57.996Z,48
2018-09-29T05:18:38.407Z,52
2018-09-29T05:19:18.832Z,60
2018-09-29T05:19:59.215Z,64
2018-09-29T05:20:39.643Z,64
2018-09-29T05:21:20.123Z,72
2018-09-29T05:22:00.437Z,76
2018-09-29T05:22:40.857Z,76
2018-09-29T05:24:54.765Z,96
2018-09-29T05:25:35.089Z,100
2018-09-29T05:26:15.481Z,104
2018-09-29T05:30:29.954Z,140
2018-09-29T05:31:10.304Z,148
2018-09-29T05:31:50.713Z,164
2018-09-29T05:32:31.121Z,176
2018-09-29T05:33:11.544Z,184
2018-09-29T05:33:51.908Z,204
2018-09-29T05:34:32.379Z,216
2018-09-29T05:35:12.799Z,236
2018-09-29T05:35:53.170Z,252
2018-09-29T05:36:33.556Z,264
2018-09-29T05:37:13.968Z,288
2018-09-29T05:37:54.360Z,308
2018-09-29T05:38:34.859Z,328
2018-09-29T05:39:15.233Z,352
2018-09-29T05:39:55.599Z,388
2018-09-29T05:40:36.016Z,436
2018-09-29T05:41:16.452Z,476
2018-09-29T05:41:56.921Z,508
2018-09-29T05:42:37.246Z,536
2018-09-29T05:43:17.667Z,584
2018-09-29T05:43:58.065Z,644
2018-09-29T05:44:38.474Z,676
2018-09-29T05:45:18.859Z,712
2018-09-29T05:45:59.296Z,736
2018-09-29T05:46:39.717Z,768
2018-09-29T05:47:20.098Z,804
2018-09-29T05:48:00.540Z,848
2018-09-29T05:48:40.904Z,884
2018-09-29T05:49:21.347Z,912
2018-09-29T05:50:01.717Z,952
2018-09-29T05:50:42.131Z,956
2018-09-29T05:51:22.482Z,956
2018-09-29T05:52:02.883Z,964
2018-09-29T05:52:43.297Z,992
2018-09-29T05:53:23.697Z,1044
2018-09-29T05:54:04.238Z,1084
2018-09-29T05:54:44.522Z,1136
2018-09-29T05:55:24.894Z,1220
2018-09-29T05:56:05.294Z,1324
2018-09-29T05:56:45.726Z,1448
2018-09-29T05:57:26.112Z,1564
2018-09-29T05:58:06.536Z,1672
2018-09-29T05:58:46.936Z,1752
2018-09-29T05:59:27.354Z,1868
2018-09-29T06:00:07.848Z,1996
2018-09-29T06:00:48.140Z,2064
2018-09-29T06:01:28.555Z,2140
2018-09-29T06:04:09.707Z,2104
2018-09-29T06:04:50.792Z,1964
2018-09-29T06:05:31.305Z,1968
2018-09-29T06:06:11.611Z,2028
2018-09-29T06:06:51.995Z,2108
2018-09-29T06:07:32.555Z,2180
2018-09-29T06:08:12.790Z,2208
2018-09-29T06:08:53.243Z,2304
2018-09-29T06:09:33.584Z,2488
2018-09-29T06:10:14.006Z,2804
2018-09-29T06:10:54.427Z,3144
2018-09-29T06:13:22.870Z,3724
2018-09-29T06:14:02.949Z,4044
2018-09-29T06:14:43.388Z,4452
2018-09-29T06:15:23.779Z,4688
2018-09-29T06:16:04.200Z,4672
2018-09-29T06:16:44.649Z,4640
2018-09-29T06:17:25.038Z,4648
2018-09-29T06:18:05.473Z,4812
2018-09-29T06:18:45.875Z,4680
2018-09-29T06:19:26.267Z,4376
2018-09-29T06:21:39.312Z,4152
2018-09-29T06:25:16.259Z,4856
2018-09-29T06:25:56.683Z,5064
2018-09-29T06:26:37.098Z,5144
2018-09-29T06:27:17.504Z,5008
2018-09-29T06:27:58.001Z,4844
2018-09-29T06:28:40.931Z,4920
2018-09-29T06:29:21.379Z,5200
2018-09-29T06:30:01.756Z,5676
2018-09-29T06:30:42.146Z,5968
2018-09-29T06:31:22.600Z,6076
2018-09-29T06:32:03.013Z,6388
2018-09-29T06:32:43.422Z,7000
2018-09-29T06:33:23.856Z,7348
2018-09-29T06:34:04.277Z,7344
2018-09-29T06:34:44.691Z,7584
2018-09-29T06:35:25.097Z,7916
2018-09-29T06:36:05.511Z,7944
2018-09-29T06:36:45.910Z,7804
2018-09-29T06:37:26.350Z,7552
2018-09-29T06:38:06.751Z,7292
2018-09-29T06:40:39.921Z,7812
2018-09-29T06:41:20.973Z,7900
2018-09-29T06:42:01.388Z,7764
2018-09-29T06:42:41.808Z,7764
2018-09-29T06:43:22.225Z,7672
2018-09-29T06:44:02.672Z,7808
2018-09-29T06:44:43.088Z,8152
2018-09-29T06:45:23.495Z,8684
2018-09-29T06:46:04.458Z,8440
2018-09-29T06:46:44.888Z,7672
2018-09-29T06:49:18.028Z,7616
2018-09-29T06:49:58.453Z,7840
2018-09-29T06:50:38.868Z,7896
2018-09-29T06:51:19.313Z,7956
2018-09-29T06:51:59.689Z,7972
2018-09-29T06:55:21.149Z,8760
2018-09-29T06:56:01.524Z,8468
2018-09-29T06:56:41.940Z,8012
2018-09-29T06:59:10.127Z,7700
2018-09-29T06:59:50.073Z,7856
2018-09-29T07:00:30.481Z,7876
2018-09-29T07:01:10.905Z,7676
2018-09-29T07:01:51.375Z,7228
2018-09-29T07:02:31.794Z,6672
2018-09-29T07:03:12.219Z,6248
2018-09-29T07:03:52.621Z,5956
2018-09-29T07:04:33.037Z,5868
2018-09-29T07:05:13.419Z,5820
2018-09-29T07:05:53.815Z,5748
2018-09-29T07:06:34.219Z,5644
2018-09-29T07:07:14.622Z,5400
2018-09-29T07:07:55.058Z,5068
2018-09-29T07:08:35.432Z,5024
2018-09-29T07:09:15.891Z,4868
2018-09-29T07:09:56.262Z,4828
2018-09-29T07:10:36.665Z,4912
2018-09-29T07:11:17.019Z,4896
2018-09-29T07:11:57.422Z,4888
2018-09-29T07:12:37.839Z,4896
2018-09-29T07:13:18.229Z,4812
2018-09-29T07:13:58.658Z,4752
2018-09-29T07:14:39.087Z,4724
2018-09-29T07:15:19.504Z,4816
2018-09-29T07:15:59.958Z,4928
2018-09-29T07:16:40.331Z,4884
2018-09-29T07:17:20.725Z,4832
2018-09-29T07:18:01.152Z,5080
2018-09-29T07:20:34.302Z,5296
2018-09-29T07:21:14.506Z,5132
2018-09-29T07:21:54.971Z,5188
2018-09-29T07:22:35.292Z,5168
2018-09-29T07:23:15.699Z,4784
2018-09-29T07:23:56.084Z,4488
2018-09-29T07:25:54.629Z,5340
2018-09-29T07:26:34.600Z,5248
2018-09-29T07:27:15.026Z,5348
2018-09-29T07:27:55.486Z,5288
2018-09-29T07:28:35.838Z,5328
2018-09-29T07:29:16.286Z,5212
2018-09-29T07:29:56.677Z,5020
2018-09-29T07:30:37.089Z,5008
2018-09-29T07:31:17.601Z,4836
2018-09-29T07:31:58.055Z,4564
2018-09-29T07:32:38.391Z,4404
2018-09-29T07:33:18.852Z,4372
2018-09-29T07:33:59.241Z,4236
2018-09-29T07:39:20.472Z,3044
2018-09-29T07:40:00.868Z,3136
2018-09-29T07:40:41.286Z,2984
2018-09-29T07:41:21.681Z,2776
2018-09-29T07:42:02.138Z,2604
2018-09-29T07:42:42.497Z,2536
2018-09-29T07:43:22.885Z,2520
2018-09-29T07:44:03.340Z,2512
2018-09-29T07:44:43.689Z,2512
2018-09-29T07:45:24.097Z,2508
2018-09-29T07:46:04.514Z,2504
2018-09-29T07:46:44.958Z,2496
2018-09-29T07:47:25.332Z,2500
2018-09-29T07:48:05.753Z,2504
2018-09-29T07:48:46.171Z,2500
2018-09-29T07:49:28.253Z,2504
2018-09-29T07:50:07.034Z,2492
2018-09-29T07:50:47.516Z,2468
2018-09-29T07:51:27.901Z,2432
2018-09-29T07:52:08.319Z,2372
2018-09-29T07:52:48.789Z,2368
2018-09-29T07:53:29.119Z,2328
2018-09-29T07:54:09.573Z,2280
2018-09-29T07:54:49.986Z,2268
2018-09-29T07:55:30.331Z,2252
2018-09-29T07:56:10.769Z,2120
2018-09-29T07:56:51.137Z,2036
2018-09-29T07:57:31.515Z,2112
2018-09-29T07:58:11.932Z,2260
2018-09-29T07:58:52.363Z,2304
2018-09-29T07:59:32.735Z,2276
2018-09-29T08:00:13.163Z,2256
2018-09-29T08:00:53.559Z,2240
2018-09-29T08:01:33.930Z,2224
2018-09-29T08:02:14.350Z,2216
2018-09-29T08:02:54.757Z,2208
2018-09-29T08:03:35.188Z,2200
2018-09-29T08:04:15.615Z,2200
2018-09-29T08:04:56.728Z,2200
2018-09-29T08:05:37.067Z,2192
2018-09-29T08:06:17.507Z,2176
2018-09-29T08:06:57.902Z,2132
2018-09-29T08:07:38.314Z,2096
2018-09-29T08:08:18.967Z,2076
2018-09-29T08:08:59.370Z,2080
2018-09-29T08:09:41.428Z,2084
2018-09-29T08:10:21.853Z,2076
2018-09-29T08:11:02.254Z,2076
2018-09-29T08:11:42.651Z,2084
2018-09-29T08:12:23.177Z,2080
2018-09-29T08:13:03.462Z,2068
2018-09-29T08:13:43.883Z,2080
2018-09-29T08:14:24.313Z,2072
2018-09-29T08:15:04.736Z,2080
2018-09-29T08:15:45.144Z,2088
2018-09-29T08:16:25.531Z,2092
2018-09-29T08:17:05.960Z,2092
2018-09-29T08:17:46.387Z,2100
2018-09-29T08:18:26.803Z,2092
2018-09-29T08:19:07.236Z,2088
2018-09-29T08:19:47.606Z,2096
2018-09-29T08:20:28.035Z,2088
2018-09-29T08:21:08.416Z,2076
2018-09-29T08:21:48.820Z,2072
2018-09-29T08:22:29.233Z,2076
2018-09-29T08:31:40.542Z,2052
2018-09-29T08:32:20.918Z,2040
2018-09-29T08:33:01.311Z,2028
2018-09-29T08:33:41.709Z,2008
2018-09-29T08:34:22.130Z,1968
2018-09-29T08:35:02.550Z,1928
2018-09-29T08:35:42.953Z,1936
2018-09-29T08:36:23.356Z,1952
2018-09-29T08:37:03.789Z,1952
2018-09-29T08:37:59.053Z,1968
2018-09-29T08:38:39.448Z,1976
2018-09-29T08:39:19.881Z,1964
2018-09-29T08:40:00.332Z,1956
2018-09-29T08:40:40.762Z,1956
2018-09-29T08:41:21.188Z,1948
2018-09-29T08:42:01.615Z,1944
2018-09-29T08:42:42.047Z,1932
2018-09-29T08:43:22.431Z,1920
2018-09-29T08:44:02.836Z,1900
2018-09-29T08:44:43.271Z,1892
2018-09-29T08:45:23.667Z,1884
2018-09-29T08:46:04.079Z,1880
2018-09-29T08:46:44.589Z,1864
2018-09-29T08:47:25.023Z,1852
2018-09-29T08:48:08.967Z,1856
2018-09-29T08:48:52.167Z,1848
2018-09-29T08:50:10.027Z,1848
2018-09-29T08:51:09.918Z,1852
2018-09-29T08:53:10.769Z,1852
2018-09-29T08:53:53.728Z,1860
2018-09-29T08:54:34.043Z,1856
2018-09-29T08:55:14.488Z,1852
2018-09-29T08:55:54.873Z,1844
2018-09-29T08:56:35.332Z,1844
2018-09-29T08:57:16.053Z,1836
2018-09-29T08:57:56.460Z,1824
2018-09-29T08:58:36.928Z,1820
2018-09-29T08:59:17.381Z,1828
2018-09-29T08:59:57.910Z,1832
2018-09-29T09:00:38.706Z,1828
2018-09-29T09:01:18.725Z,1828
2018-09-29T09:01:59.882Z,1820
2018-09-29T09:02:39.966Z,1828
2018-09-29T09:03:20.113Z,1824
2018-09-29T09:04:00.840Z,1832
2018-09-29T09:04:41.049Z,1832
2018-09-29T09:05:21.576Z,1828
2018-09-29T09:06:02.181Z,1816
2018-09-29T09:06:42.593Z,1808
2018-09-29T09:07:23.939Z,1800
2018-09-29T09:08:03.993Z,1792
2018-09-29T09:08:44.419Z,1820
2018-09-29T09:09:25.094Z,1824
2018-09-29T09:10:05.225Z,1816
2018-09-29T09:10:46.340Z,1808
2018-09-29T09:12:59.581Z,1796
2018-09-29T09:13:39.883Z,1796
2018-09-29T09:14:20.288Z,1796
2018-09-29T09:15:00.761Z,1796
2018-09-29T09:15:41.156Z,1792
2018-09-29T09:16:21.646Z,1784
2018-09-29T09:17:02.133Z,1772
2018-09-29T09:17:42.354Z,1768
2018-09-29T09:18:22.742Z,1752
2018-09-29T09:19:03.181Z,1760
2018-09-29T09:19:43.557Z,1764
2018-09-29T09:20:23.985Z,1748
2018-09-29T09:21:04.383Z,1740
2018-09-29T09:21:44.775Z,1736
2018-09-29T09:22:25.240Z,1736
2018-09-29T09:23:05.669Z,1732
2018-09-29T09:23:46.218Z,1724
2018-09-29T09:24:26.920Z,1716
2018-09-29T09:25:07.292Z,1716
2018-09-29T09:25:47.668Z,1716
2018-09-29T09:26:28.048Z,1712
2018-09-29T09:28:26.274Z,1708
2018-09-29T09:29:06.730Z,1700
2018-09-29T09:29:47.181Z,1704
2018-09-29T09:30:27.877Z,1704
2018-09-29T09:31:08.960Z,1696
2018-09-29T09:31:49.385Z,1700
2018-09-29T09:32:29.930Z,1708
2018-09-29T09:33:10.436Z,1696
2018-09-29T09:33:50.908Z,1684
2018-09-29T09:34:31.249Z,1688
2018-09-29T09:35:11.666Z,1684
2018-09-29T09:35:52.099Z,1680
2018-09-29T09:36:32.588Z,1668
2018-09-29T09:37:12.925Z,1652
2018-09-29T09:37:53.301Z,1640
2018-09-29T09:38:33.697Z,1628
2018-09-29T09:39:14.136Z,1624
2018-09-29T09:39:54.664Z,1640
2018-09-29T09:40:35.053Z,1656
2018-09-29T09:41:15.627Z,1656
2018-09-29T09:41:55.881Z,1668
2018-09-29T09:42:36.332Z,1668
2018-09-29T09:43:16.687Z,1664
2018-09-29T09:43:57.222Z,1652
2018-09-29T09:44:37.939Z,1656
2018-09-29T09:45:18.241Z,1656
2018-09-29T09:45:58.643Z,1656
2018-09-29T09:46:39.078Z,1656
2018-09-29T09:47:19.524Z,1652
2018-09-29T09:54:47.261Z,1568
2018-09-29T09:55:27.436Z,1564
2018-09-29T09:56:07.953Z,1556
2018-09-29T09:56:48.617Z,1552
2018-09-29T09:57:28.832Z,1544
2018-09-29T09:58:09.281Z,1540
2018-09-29T09:58:49.977Z,1544
2018-09-29T09:59:30.117Z,1548
2018-09-29T10:01:43.576Z,1528
2018-09-29T10:02:24.126Z,1516
2018-09-29T10:03:05.784Z,1488
2018-09-29T10:03:47.334Z,1468
2018-09-29T10:04:27.366Z,1440
2018-09-29T10:05:07.761Z,1480
2018-09-29T10:05:48.153Z,1412
2018-09-29T10:09:37.140Z,1484
2018-09-29T10:10:17.397Z,1476
2018-09-29T10:10:58.166Z,1468
2018-09-29T10:11:38.830Z,1452
2018-09-29T10:12:19.198Z,1460
2018-09-29T10:12:59.666Z,1460
2018-09-29T10:13:40.150Z,1456
2018-09-29T10:14:20.537Z,1456
2018-09-29T10:19:58.595Z,1488
2018-09-29T10:20:38.656Z,1480
2018-09-29T10:21:20.147Z,1476
2018-09-29T10:22:01.361Z,1492
2018-09-29T10:22:45.934Z,1488
2018-09-29T10:23:26.332Z,1504
2018-09-29T10:24:06.814Z,1492
2018-09-29T10:24:47.323Z,1492
2018-09-29T10:25:27.729Z,1492
2018-09-29T10:26:08.523Z,1492
2018-09-29T10:26:49.140Z,1488
2018-09-29T11:07:36.136Z,1404
2018-09-29T11:08:17.701Z,1392
2018-09-29T11:08:58.548Z,1392
2018-09-29T11:09:38.782Z,1400
2018-09-29T11:10:19.230Z,1392
2018-09-29T11:10:59.645Z,1388
2018-09-29T11:11:40.060Z,1380
2018-09-29T11:12:20.571Z,1372
2018-09-29T11:15:54.933Z,1372
2018-09-29T11:16:35.438Z,1372
2018-09-29T11:17:16.043Z,1376
2018-09-29T11:17:56.865Z,1376
2018-09-29T11:18:37.660Z,1372
2018-09-29T11:19:17.980Z,1368
2018-09-29T11:19:58.380Z,1368
2018-09-29T11:20:38.804Z,1344
2018-09-29T11:21:19.191Z,1348
2018-09-29T11:21:59.602Z,1344
2018-09-29T11:22:40.032Z,1324
2018-09-29T11:23:23.179Z,1328
2018-09-29T11:24:04.730Z,1328
2018-09-29T11:24:45.215Z,1324
2018-09-29T11:25:25.622Z,1316
2018-09-29T11:26:06.058Z,1304
2018-09-29T11:26:46.700Z,1308
2018-09-29T11:27:27.930Z,1316
2018-09-29T11:28:08.093Z,1316
2018-09-29T11:28:48.594Z,1320
2018-09-29T11:29:28.942Z,1316
2018-09-29T11:31:58.487Z,1340
2018-09-29T11:32:37.931Z,1340
2018-09-29T11:33:18.535Z,1340
2018-09-29T11:33:59.039Z,1340
2018-09-29T11:34:39.438Z,1348
2018-09-29T11:35:20.091Z,1352
2018-09-29T11:36:00.315Z,1360
2018-09-29T11:36:40.742Z,1360
2018-09-29T11:37:23.170Z,1364
2018-09-29T11:38:03.602Z,1376
2018-09-29T11:38:43.896Z,1380
2018-09-29T11:41:06.172Z,1368
2018-09-29T11:47:15.646Z,1388
2018-09-29T11:47:54.853Z,1396
2018-09-29T11:48:35.315Z,1408
2018-09-29T11:49:15.800Z,1408
2018-09-29T11:52:37.290Z,1396
2018-09-29T11:53:17.924Z,1396
2018-09-29T11:53:58.192Z,1392
2018-09-29T11:54:38.565Z,1388
2018-09-29T11:55:18.997Z,1372
2018-09-29T11:55:59.406Z,1376
2018-09-29T11:56:39.795Z,1368
2018-09-29T11:57:20.558Z,1344
2018-09-29T11:58:01.135Z,1312
2018-09-29T11:58:41.440Z,1320
2018-09-29T11:59:21.866Z,1340
2018-09-29T12:00:02.301Z,1340
2018-09-29T12:00:42.740Z,1332
2018-09-29T12:01:23.099Z,1308
2018-09-29T12:02:03.531Z,1308
2018-09-29T12:02:43.927Z,1288
2018-09-29T12:03:24.347Z,1288
2018-09-29T12:04:04.750Z,1292
2018-09-29T12:04:45.182Z,1316
2018-09-29T12:05:25.591Z,1312
2018-09-29T12:06:06.190Z,1308
2018-09-29T12:06:46.508Z,1296
2018-09-29T12:07:26.921Z,1288
2018-09-29T12:08:07.449Z,1284
2018-09-29T12:08:47.777Z,1280
2018-09-29T12:09:28.183Z,1284
2018-09-29T12:10:09.948Z,1264
2018-09-29T12:10:50.472Z,1240
2018-09-29T12:11:30.793Z,1232
2018-09-29T12:12:11.209Z,1212
2018-09-29T12:12:51.650Z,1180
2018-09-29T12:13:32.373Z,1204
2018-09-29T12:14:12.824Z,1212
2018-09-29T12:14:53.189Z,1236
2018-09-29T12:15:33.570Z,1232
2018-09-29T12:16:14.195Z,1228
2018-09-29T12:16:54.585Z,1212
2018-09-29T12:17:35.066Z,1220
2018-09-29T12:18:15.445Z,1232
2018-09-29T12:18:55.875Z,1232
2018-09-29T12:19:36.330Z,1228
2018-09-29T12:20:16.741Z,1212
2018-09-29T12:20:57.130Z,1196
2018-09-29T12:21:37.604Z,1188
2018-09-29T12:22:18.081Z,1196
2018-09-29T12:22:58.493Z,1196
2018-09-29T12:23:38.946Z,1192
2018-09-29T12:27:50.632Z,1184
2018-09-29T12:28:33.657Z,1188
2018-09-29T12:33:43.341Z,1196
2018-09-29T12:34:23.687Z,1208
2018-09-29T12:35:04.080Z,1216
2018-09-29T12:35:44.535Z,1216